createdAt,value
2023-01-13T00:01:27.827Z,50.75
2023-01-13T00:03:57.005Z,44.33
2023-01-13T00:06:26.939Z,44.33
2023-01-13T00:08:57.827Z,44.33
2023-01-13T00:11:27.737Z,47.33
2023-01-13T00:13:57.147Z,43.33
2023-01-13T00:16:25.984Z,44.67
2023-01-13T00:18:54.595Z,48.25
2023-01-13T00:21:24.999Z,48.75
2023-01-13T00:23:55.122Z,52.00
2023-01-13T00:26:27.063Z,52.50
2023-01-13T00:28:58.935Z,49.75
2023-01-13T00:31:29.973Z,47.67
2023-01-13T00:34:00.160Z,45.00
2023-01-13T00:36:30.772Z,46.67
2023-01-13T00:39:00.225Z,47.00
2023-01-13T00:41:50.211Z,47.33
2023-01-13T00:44:18.239Z,44.67
2023-01-13T00:46:46.886Z,42.33
2023-01-13T00:49:16.110Z,46.33
2023-01-13T00:51:44.574Z,45.75
2023-01-13T00:54:13.365Z,44.67
2023-01-13T00:56:43.285Z,44.33
2023-01-13T00:59:13.591Z,44.50
2023-01-13T01:01:42.494Z,41.50
2023-01-13T01:04:12.204Z,49.00
2023-01-13T01:06:40.988Z,50.50
2023-01-13T01:09:14.072Z,43.00
2023-01-13T01:11:44.853Z,52.25
2023-01-13T01:14:15.423Z,56.25
2023-01-13T01:16:43.975Z,53.50
2023-01-13T01:19:12.888Z,54.25
2023-01-13T01:21:41.901Z,49.00
2023-01-13T01:24:11.408Z,45.75
2023-01-13T01:26:41.904Z,50.75
2023-01-13T01:29:15.210Z,47.50
2023-01-13T01:31:44.987Z,48.00
2023-01-13T01:34:13.928Z,51.75
2023-01-13T01:36:42.699Z,54.75
2023-01-13T01:39:12.007Z,55.25
2023-01-13T01:42:00.451Z,45.75
2023-01-13T01:44:53.804Z,49.50
2023-01-13T01:47:23.752Z,48.00
2023-01-13T01:49:52.980Z,49.25
2023-01-13T01:52:27.075Z,50.75
2023-01-13T01:55:00.873Z,54.00
2023-01-13T01:57:33.847Z,51.00
2023-01-13T02:00:05.426Z,52.50
2023-01-13T02:02:41.587Z,51.75
2023-01-13T02:05:10.848Z,52.00
2023-01-13T02:07:42.016Z,47.25
2023-01-13T02:10:13.601Z,44.00
2023-01-13T02:12:45.399Z,47.25
2023-01-13T02:15:18.999Z,47.00
2023-01-13T02:18:20.509Z,49.25
2023-01-13T02:21:13.748Z,49.75
2023-01-13T02:24:47.805Z,46.00
2023-01-13T02:27:41.900Z,45.33
2023-01-13T02:30:38.979Z,48.33
2023-01-13T02:33:20.461Z,45.67
2023-01-13T02:35:53.475Z,46.00
2023-01-13T02:38:28.815Z,43.00
2023-01-13T02:41:21.841Z,43.00
2023-01-13T02:44:08.345Z,43.00
2023-01-13T02:46:45.648Z,42.67
2023-01-13T02:49:21.298Z,45.00
2023-01-13T02:51:52.539Z,42.75
2023-01-13T02:54:25.699Z,43.67
2023-01-13T02:56:56.922Z,41.33
2023-01-13T02:59:27.945Z,43.00
2023-01-13T03:01:58.567Z,41.00
2023-01-13T03:04:51.527Z,43.00
2023-01-13T03:07:55.748Z,42.00
2023-01-13T03:10:39.083Z,41.00
2023-01-13T03:13:18.614Z,43.00
2023-01-13T03:16:01.427Z,43.67
2023-01-13T03:18:41.829Z,40.67
2023-01-13T03:21:21.039Z,36.33
2023-01-13T03:23:54.111Z,43.00
2023-01-13T03:26:32.042Z,42.67
2023-01-13T03:29:07.873Z,41.67
2023-01-13T03:31:44.498Z,42.33
2023-01-13T03:34:18.478Z,41.33
2023-01-13T03:36:51.449Z,39.67
2023-01-13T03:39:28.262Z,38.50
2023-01-13T03:42:01.613Z,38.00
2023-01-13T03:44:34.090Z,39.25
2023-01-13T03:47:11.400Z,39.75
2023-01-13T03:49:48.293Z,39.25
2023-01-13T03:52:24.250Z,39.00
2023-01-13T03:54:56.781Z,36.50
2023-01-13T03:57:30.637Z,35.50
2023-01-13T04:00:04.071Z,37.75
2023-01-13T04:02:54.960Z,36.75
2023-01-13T04:05:26.227Z,37.75
2023-01-13T04:08:02.220Z,35.00
2023-01-13T04:10:36.725Z,35.25
2023-01-13T04:13:09.276Z,36.75
2023-01-13T04:15:40.325Z,38.00
2023-01-13T04:18:15.835Z,38.00
2023-01-13T04:20:48.417Z,35.50
2023-01-13T04:23:18.265Z,37.50
2023-01-13T04:25:47.769Z,35.00
2023-01-13T04:28:17.844Z,38.75
2023-01-13T04:30:47.362Z,37.75
2023-01-13T04:33:17.945Z,37.75
2023-01-13T04:35:48.677Z,37.75
2023-01-13T04:38:20.596Z,38.25
2023-01-13T04:40:49.854Z,38.50
2023-01-13T04:43:18.999Z,37.25
2023-01-13T04:45:47.715Z,36.00
2023-01-13T04:48:16.586Z,41.75
2023-01-13T04:50:45.075Z,43.33
2023-01-13T04:53:15.409Z,43.00
2023-01-13T04:55:45.195Z,38.75
2023-01-13T04:58:14.013Z,37.75
2023-01-13T05:00:43.126Z,39.75
2023-01-13T05:03:12.104Z,38.50
2023-01-13T05:05:40.667Z,38.50
2023-01-13T05:08:10.164Z,37.75
2023-01-13T05:10:40.180Z,38.75
2023-01-13T05:13:27.697Z,43.00
2023-01-13T05:16:13.975Z,39.25
2023-01-13T05:18:43.022Z,39.25
2023-01-13T05:21:31.567Z,32.75
2023-01-13T05:24:17.724Z,48.00
2023-01-13T05:26:47.780Z,44.25
2023-01-13T05:29:16.687Z,34.50
2023-01-13T05:31:45.239Z,52.00
2023-01-13T05:34:14.457Z,41.33
2023-01-13T05:36:43.059Z,38.75
2023-01-13T05:39:12.088Z,39.50
2023-01-13T05:41:58.492Z,38.25
2023-01-13T05:44:28.836Z,37.25
2023-01-13T05:46:57.644Z,35.75
2023-01-13T05:49:26.515Z,35.75
2023-01-13T05:51:55.098Z,38.00
2023-01-13T05:54:23.899Z,34.00
2023-01-13T05:56:52.458Z,35.75
2023-01-13T05:59:21.402Z,37.00
2023-01-13T06:01:51.305Z,35.00
2023-01-13T06:04:20.255Z,34.50
2023-01-13T06:06:48.983Z,41.67
2023-01-13T06:09:17.965Z,38.75
2023-01-13T06:11:46.565Z,38.25
2023-01-13T06:14:15.856Z,39.00
2023-01-13T06:16:45.947Z,34.00
2023-01-13T06:19:16.436Z,36.00
2023-01-13T06:21:45.323Z,40.33
2023-01-13T06:24:14.246Z,43.33
2023-01-13T06:26:42.859Z,44.00
2023-01-13T06:29:15.027Z,41.67
2023-01-13T06:31:44.449Z,42.00
2023-01-13T06:34:14.785Z,41.67
2023-01-13T06:36:49.865Z,41.00
2023-01-13T06:39:23.647Z,41.25
2023-01-13T06:42:12.983Z,40.67
2023-01-13T06:44:42.125Z,35.50
2023-01-13T06:47:11.153Z,34.50
2023-01-13T06:49:40.102Z,33.75
2023-01-13T06:52:10.070Z,33.25
2023-01-13T06:54:39.063Z,30.00
2023-01-13T06:57:07.703Z,34.50
2023-01-13T06:59:36.684Z,34.75
2023-01-13T07:02:05.393Z,39.50
2023-01-13T07:04:34.325Z,37.50
2023-01-13T07:07:02.898Z,37.25
2023-01-13T07:09:33.219Z,36.25
2023-01-13T07:12:01.812Z,29.00
2023-01-13T07:14:48.315Z,29.25
2023-01-13T07:17:25.101Z,27.75
2023-01-13T07:19:54.721Z,29.25
2023-01-13T07:22:24.544Z,27.00
2023-01-13T07:24:54.849Z,19.25
2023-01-13T07:27:23.382Z,22.50
2023-01-13T07:29:52.203Z,20.75
2023-01-13T07:32:20.723Z,25.00
2023-01-13T07:34:49.588Z,16.00
2023-01-13T07:37:18.317Z,16.60
2023-01-13T07:39:47.375Z,18.00
2023-01-13T07:42:31.127Z,19.20
2023-01-13T07:45:00.313Z,16.20
2023-01-13T07:47:29.131Z,11.80
2023-01-13T07:49:57.996Z,15.40
2023-01-13T07:52:26.486Z,17.60
2023-01-13T07:54:55.258Z,19.60
2023-01-13T07:57:25.326Z,15.40
2023-01-13T07:59:54.239Z,16.00
2023-01-13T08:02:23.137Z,10.60
2023-01-13T08:04:52.085Z,19.00
2023-01-13T08:07:20.757Z,17.00
2023-01-13T08:09:49.899Z,16.60
2023-01-13T08:12:35.951Z,18.20
2023-01-13T08:15:10.110Z,16.00
2023-01-13T08:17:38.714Z,20.00
2023-01-13T08:20:08.912Z,24.20
2023-01-13T08:22:38.366Z,20.60
2023-01-13T08:25:08.109Z,22.80
2023-01-13T08:27:36.663Z,19.20
2023-01-13T08:30:08.494Z,22.20
2023-01-13T08:32:37.161Z,20.40
2023-01-13T08:35:06.771Z,20.40
2023-01-13T08:37:35.393Z,20.00
2023-01-13T08:40:04.608Z,17.50
2023-01-13T08:42:33.455Z,21.40
2023-01-13T08:45:02.291Z,20.60
2023-01-13T08:47:32.379Z,23.50
2023-01-13T08:50:01.296Z,22.75
2023-01-13T08:52:30.798Z,22.00
2023-01-13T08:54:59.649Z,23.00
2023-01-13T08:57:28.790Z,25.00
2023-01-13T08:59:57.863Z,24.00
2023-01-13T09:02:27.429Z,20.00
2023-01-13T09:04:57.791Z,25.00
2023-01-13T09:07:26.418Z,25.50
2023-01-13T09:09:56.875Z,20.50
2023-01-13T09:12:43.109Z,20.60
2023-01-13T09:15:12.553Z,25.00
2023-01-13T09:17:41.342Z,24.00
2023-01-13T09:20:13.805Z,19.75
2023-01-13T09:22:42.401Z,21.40
2023-01-13T09:25:12.607Z,21.75
2023-01-13T09:27:41.171Z,25.00
2023-01-13T09:30:11.533Z,24.75
2023-01-13T09:32:40.199Z,24.25
2023-01-13T09:35:10.326Z,15.00
2023-01-13T09:37:41.258Z,20.75
2023-01-13T09:40:32.169Z,27.75
2023-01-13T09:43:24.389Z,25.00
2023-01-13T09:46:01.619Z,25.00
2023-01-13T09:48:33.664Z,19.25
2023-01-13T09:51:14.701Z,26.50
2023-01-13T09:53:51.507Z,26.50
2023-01-13T09:56:20.319Z,26.75
2023-01-13T09:58:49.337Z,25.25
2023-01-13T10:01:29.452Z,26.75
2023-01-13T10:04:03.758Z,28.25
2023-01-13T10:06:38.804Z,28.75
2023-01-13T10:09:07.618Z,26.50
2023-01-13T10:12:01.438Z,25.00
2023-01-13T10:14:36.132Z,27.00
2023-01-13T10:17:13.350Z,29.00
2023-01-13T10:19:45.675Z,27.00
2023-01-13T10:22:35.861Z,24.75
2023-01-13T10:25:18.463Z,28.25
2023-01-13T10:27:50.229Z,29.00
2023-01-13T10:30:22.444Z,28.25
2023-01-13T10:32:55.979Z,29.25
2023-01-13T10:35:54.495Z,28.75
2023-01-13T10:38:27.786Z,28.00
2023-01-13T10:40:58.142Z,27.25
2023-01-13T10:43:28.044Z,27.00
2023-01-13T10:46:03.277Z,29.00
2023-01-13T10:48:41.132Z,27.00
2023-01-13T10:51:21.142Z,27.25
2023-01-13T10:53:55.997Z,29.00
2023-01-13T10:56:27.302Z,24.00
2023-01-13T10:59:14.123Z,27.25
2023-01-13T11:01:44.490Z,29.00
2023-01-13T11:04:29.620Z,27.75
2023-01-13T11:06:59.055Z,28.50
2023-01-13T11:09:31.702Z,29.00
2023-01-13T11:12:03.095Z,27.75
2023-01-13T11:14:42.590Z,25.00
2023-01-13T11:17:23.190Z,26.75
2023-01-13T11:19:58.613Z,26.00
2023-01-13T11:22:33.328Z,26.50
2023-01-13T11:25:05.927Z,26.50
2023-01-13T11:27:43.724Z,27.00
2023-01-13T11:30:23.253Z,26.75
2023-01-13T11:33:26.628Z,27.00
2023-01-13T11:36:04.533Z,26.00
2023-01-13T11:38:39.125Z,27.50
2023-01-13T11:41:19.082Z,28.25
2023-01-13T11:43:55.285Z,26.25
2023-01-13T11:46:28.684Z,30.75
2023-01-13T11:48:58.007Z,30.75
2023-01-13T11:51:35.660Z,28.75
2023-01-13T11:54:46.999Z,27.25
2023-01-13T11:57:40.644Z,28.25
2023-01-13T12:00:28.133Z,30.50
2023-01-13T12:03:11.710Z,26.00
2023-01-13T12:05:44.419Z,31.75
2023-01-13T12:08:19.837Z,30.75
2023-01-13T12:11:02.653Z,28.00
2023-01-13T12:13:45.796Z,29.50
2023-01-13T12:16:20.270Z,27.25
2023-01-13T12:19:07.657Z,29.25
2023-01-13T12:21:40.053Z,27.75
2023-01-13T12:24:18.306Z,30.75
2023-01-13T12:26:55.636Z,30.75
2023-01-13T12:29:32.075Z,27.25
2023-01-13T12:32:03.171Z,28.25
2023-01-13T12:34:41.102Z,30.75
2023-01-13T12:37:18.228Z,27.00
2023-01-13T12:40:00.721Z,27.00
2023-01-13T12:42:56.480Z,25.50
2023-01-13T12:45:31.319Z,26.50
2023-01-13T12:48:01.069Z,28.25
2023-01-13T12:50:42.404Z,27.75
2023-01-13T12:53:34.698Z,29.75
2023-01-13T12:56:42.222Z,28.50
2023-01-13T12:59:49.037Z,31.00
2023-01-13T13:03:07.451Z,30.75
2023-01-13T13:05:59.447Z,34.00
2023-01-13T13:08:45.593Z,32.25
2023-01-13T13:11:41.677Z,33.25
2023-01-13T13:14:13.847Z,31.25
2023-01-13T13:16:52.293Z,33.25
2023-01-13T13:19:50.970Z,33.25
2023-01-13T13:22:40.130Z,33.25
2023-01-13T13:25:28.349Z,36.50
2023-01-13T13:28:17.544Z,34.75
2023-01-13T13:30:57.452Z,33.25
2023-01-13T13:33:48.969Z,34.00
2023-01-13T13:36:40.538Z,35.00
2023-01-13T13:39:40.002Z,37.00
2023-01-13T13:42:32.444Z,38.75
2023-01-13T13:45:21.249Z,2.00
2023-01-13T13:47:50.549Z,38.75
2023-01-13T13:50:21.627Z,36.00
2023-01-13T13:52:57.634Z,40.00
2023-01-13T13:55:27.973Z,40.67
2023-01-13T13:57:58.562Z,41.33
2023-01-13T14:00:30.430Z,39.33
2023-01-13T14:03:01.649Z,38.75
2023-01-13T14:05:32.757Z,38.00
2023-01-13T14:08:05.427Z,34.50
2023-01-13T14:10:36.427Z,36.25
2023-01-13T14:13:15.621Z,35.75
2023-01-13T14:15:45.415Z,37.25
2023-01-13T14:18:17.913Z,36.00
2023-01-13T14:20:54.194Z,35.75
2023-01-13T14:23:28.634Z,35.25
2023-01-13T14:26:04.711Z,36.75
2023-01-13T14:28:38.022Z,37.00
2023-01-13T14:31:08.494Z,34.00
2023-01-13T14:33:40.926Z,35.75
2023-01-13T14:36:16.488Z,38.00
2023-01-13T14:38:48.468Z,37.00
2023-01-13T14:41:25.240Z,36.25
2023-01-13T14:43:59.324Z,36.50
2023-01-13T14:46:38.311Z,34.75
2023-01-13T14:49:16.088Z,35.75
2023-01-13T14:51:44.883Z,35.25
2023-01-13T14:54:46.110Z,33.50
2023-01-13T14:57:17.692Z,36.00
2023-01-13T14:59:51.931Z,34.50
2023-01-13T15:02:40.625Z,36.00
2023-01-13T15:05:31.991Z,33.75
2023-01-13T15:08:03.545Z,36.25
2023-01-13T15:10:38.115Z,36.00
2023-01-13T15:13:08.294Z,36.50
2023-01-13T15:15:39.226Z,36.00
2023-01-13T15:18:14.266Z,37.00
2023-01-13T15:20:43.716Z,36.75
2023-01-13T15:23:12.976Z,35.00
2023-01-13T15:25:45.533Z,38.75
2023-01-13T15:28:19.749Z,40.00
2023-01-13T15:30:49.627Z,36.50
2023-01-13T15:33:18.721Z,40.00
2023-01-13T15:35:50.262Z,41.00
2023-01-13T15:38:21.508Z,40.50
2023-01-13T15:40:53.544Z,40.25
2023-01-13T15:43:41.585Z,38.25
2023-01-13T15:46:32.158Z,39.00
2023-01-13T15:49:08.807Z,38.25
2023-01-13T15:51:38.930Z,38.75
2023-01-13T15:54:08.224Z,39.00
2023-01-13T15:56:42.092Z,40.00
2023-01-13T15:59:18.611Z,39.00
2023-01-13T16:01:47.713Z,38.75
2023-01-13T16:04:16.739Z,38.00
2023-01-13T16:06:47.611Z,39.50
2023-01-13T16:09:17.760Z,37.75
2023-01-13T16:11:48.095Z,37.50
2023-01-13T16:14:17.027Z,38.25
2023-01-13T16:16:46.137Z,40.00
2023-01-13T16:19:14.730Z,36.75
2023-01-13T16:21:45.373Z,35.50
2023-01-13T16:24:14.033Z,34.75
2023-01-13T16:26:42.993Z,38.50
2023-01-13T16:29:13.666Z,35.75
2023-01-13T16:31:42.663Z,39.00
2023-01-13T16:34:11.219Z,36.00
2023-01-13T16:36:40.203Z,38.25
2023-01-13T16:39:21.456Z,36.50
2023-01-13T16:41:50.451Z,38.75
2023-01-13T16:44:20.549Z,37.75
2023-01-13T16:46:50.028Z,38.75
2023-01-13T16:49:18.801Z,35.25
2023-01-13T16:51:47.760Z,39.00
2023-01-13T16:54:16.326Z,38.50
2023-01-13T16:56:45.425Z,37.50
2023-01-13T16:59:15.291Z,38.75
2023-01-13T17:01:45.981Z,38.25
2023-01-13T17:04:17.699Z,39.00
2023-01-13T17:06:54.328Z,36.75
2023-01-13T17:09:25.048Z,35.25
2023-01-13T17:11:54.077Z,31.25
2023-01-13T17:14:23.633Z,35.50
2023-01-13T17:16:58.449Z,36.25
2023-01-13T17:19:27.352Z,38.25
2023-01-13T17:21:56.375Z,35.25
2023-01-13T17:24:25.958Z,36.50
2023-01-13T17:26:54.844Z,35.25
2023-01-13T17:29:25.865Z,34.00
2023-01-13T17:31:56.472Z,36.50
2023-01-13T17:34:25.144Z,38.75
2023-01-13T17:36:54.180Z,40.00
2023-01-13T17:39:24.685Z,38.50
2023-01-13T17:41:55.948Z,37.00
2023-01-13T17:44:24.646Z,39.25
2023-01-13T17:46:53.657Z,41.25
2023-01-13T17:49:23.850Z,39.75
2023-01-13T17:51:53.119Z,39.75
2023-01-13T17:54:22.651Z,37.25
2023-01-13T17:56:51.604Z,42.50
2023-01-13T17:59:22.536Z,33.50
2023-01-13T18:01:51.773Z,39.25
2023-01-13T18:04:22.581Z,42.00
2023-01-13T18:06:53.661Z,39.75
2023-01-13T18:09:23.407Z,38.50
2023-01-13T18:11:52.300Z,40.00
2023-01-13T18:14:22.549Z,38.50
2023-01-13T18:16:51.758Z,38.25
2023-01-13T18:19:38.055Z,38.75
2023-01-13T18:22:25.710Z,37.25
2023-01-13T18:25:21.832Z,38.00
2023-01-13T18:27:51.021Z,35.75
2023-01-13T18:30:20.525Z,36.00
2023-01-13T18:32:49.429Z,37.50
2023-01-13T18:35:18.125Z,36.25
2023-01-13T18:37:48.576Z,36.75
2023-01-13T18:40:17.412Z,36.50
2023-01-13T18:42:59.265Z,36.00
2023-01-13T18:45:30.500Z,36.25
2023-01-13T18:48:01.707Z,33.00
2023-01-13T18:50:31.195Z,35.00
2023-01-13T18:53:01.810Z,33.75
2023-01-13T18:55:30.688Z,33.25
2023-01-13T18:57:59.600Z,35.75
2023-01-13T19:00:29.142Z,36.75
2023-01-13T19:05:35.733Z,35.00
2023-01-13T19:08:06.670Z,34.25
2023-01-13T19:10:36.628Z,30.75
2023-01-13T19:13:05.790Z,35.75
2023-01-13T19:15:37.469Z,36.25
2023-01-13T19:18:06.691Z,35.00
2023-01-13T19:20:35.453Z,35.25
2023-01-13T19:23:04.549Z,34.75
2023-01-13T19:25:34.459Z,34.75
2023-01-13T19:28:03.327Z,32.50
2023-01-13T19:30:32.075Z,33.25
2023-01-13T19:33:01.446Z,33.00
2023-01-13T19:35:30.489Z,33.00
2023-01-13T19:37:59.353Z,35.75
2023-01-13T19:40:28.137Z,32.25
2023-01-13T19:43:15.820Z,35.25
2023-01-13T19:45:44.995Z,35.50
2023-01-13T19:48:16.264Z,35.00
2023-01-13T19:50:44.889Z,34.75
2023-01-13T19:53:18.002Z,35.00
2023-01-13T19:55:48.435Z,30.75
2023-01-13T19:58:20.010Z,30.50
2023-01-13T20:00:48.751Z,34.50
2023-01-13T20:03:19.316Z,34.25
2023-01-13T20:05:48.479Z,30.75
2023-01-13T20:08:17.756Z,30.25
2023-01-13T20:10:47.444Z,31.00
2023-01-13T20:13:18.099Z,30.75
2023-01-13T20:15:46.820Z,30.75
2023-01-13T20:18:15.798Z,30.50
2023-01-13T20:20:44.302Z,31.50
2023-01-13T20:23:13.126Z,29.75
2023-01-13T20:25:43.471Z,31.75
2023-01-13T20:28:12.326Z,28.25
2023-01-13T20:30:42.544Z,30.75
2023-01-13T20:33:11.581Z,31.50
2023-01-13T20:35:40.374Z,25.75
2023-01-13T20:38:09.516Z,31.25
2023-01-13T20:40:38.131Z,25.50
2023-01-13T20:43:06.371Z,31.00
2023-01-13T20:45:35.201Z,30.25
2023-01-13T20:48:05.718Z,33.00
2023-01-13T20:50:34.282Z,29.75
2023-01-13T20:53:03.193Z,32.25
2023-01-13T20:55:31.995Z,31.25
2023-01-13T20:58:00.878Z,30.50
2023-01-13T21:00:29.841Z,31.25
2023-01-13T21:02:59.955Z,32.25
2023-01-13T21:05:29.961Z,29.75
2023-01-13T21:07:58.853Z,32.50
2023-01-13T21:10:27.385Z,30.25
2023-01-13T21:13:13.999Z,28.75
2023-01-13T21:15:48.066Z,28.75
2023-01-13T21:18:30.776Z,32.00
2023-01-13T21:21:12.470Z,30.25
2023-01-13T21:23:42.412Z,30.00
2023-01-13T21:26:12.324Z,30.00
2023-01-13T21:28:41.170Z,31.00
2023-01-13T21:31:10.633Z,31.00
2023-01-13T21:33:40.060Z,30.25
2023-01-13T21:36:13.284Z,31.00
2023-01-13T21:38:42.623Z,29.75
2023-01-13T21:41:14.418Z,25.75
2023-01-13T21:44:01.474Z,30.00
2023-01-13T21:46:47.468Z,2.75
2023-01-13T21:49:16.320Z,32.50
2023-01-13T21:51:46.375Z,30.00
2023-01-13T21:54:15.302Z,30.50
2023-01-13T21:56:43.837Z,33.50
2023-01-13T21:59:12.708Z,32.50
2023-01-13T22:02:02.874Z,31.00
2023-01-13T22:04:30.251Z,26.00
2023-01-13T22:07:04.565Z,28.50
2023-01-13T22:09:33.460Z,30.00
2023-01-13T22:12:02.491Z,28.75
2023-01-13T22:14:31.479Z,26.25
2023-01-13T22:17:01.247Z,26.00
2023-01-13T22:19:30.578Z,26.00
2023-01-13T22:22:00.649Z,31.50
2023-01-13T22:24:30.257Z,29.25
2023-01-13T22:26:58.857Z,29.50
2023-01-13T22:29:27.966Z,28.75
2023-01-13T22:31:56.689Z,26.25
2023-01-13T22:34:25.602Z,17.50
2023-01-13T22:36:54.335Z,28.75
2023-01-13T22:39:24.625Z,26.00
2023-01-13T22:41:53.465Z,26.75
2023-01-13T22:44:23.059Z,29.75
2023-01-13T22:46:51.644Z,28.00
2023-01-13T22:49:21.462Z,24.50
2023-01-13T22:51:50.111Z,26.00
2023-01-13T22:54:19.822Z,26.75
2023-01-13T22:56:49.865Z,24.00
2023-01-13T22:59:18.700Z,26.25
2023-01-13T23:01:47.588Z,25.67
2023-01-13T23:04:16.689Z,19.50
2023-01-13T23:06:45.410Z,23.25
2023-01-13T23:09:14.306Z,15.25
2023-01-13T23:11:43.195Z,25.50
2023-01-13T23:14:14.058Z,25.50
2023-01-13T23:16:44.000Z,24.00
2023-01-13T23:19:15.217Z,21.75
2023-01-13T23:21:44.188Z,16.00
2023-01-13T23:24:13.150Z,22.00
2023-01-13T23:26:42.353Z,24.75
2023-01-13T23:29:14.585Z,25.50
2023-01-13T23:31:43.320Z,28.00
2023-01-13T23:34:13.319Z,23.50
2023-01-13T23:36:43.418Z,24.00
2023-01-13T23:39:12.461Z,21.75
2023-01-13T23:41:41.126Z,23.00
2023-01-13T23:44:10.697Z,24.75
2023-01-13T23:46:40.837Z,24.75
2023-01-13T23:49:09.724Z,17.50
2023-01-13T23:51:38.323Z,24.50
2023-01-13T23:54:07.271Z,18.25
2023-01-13T23:56:39.408Z,22.75
2023-01-13T23:59:08.662Z,25.25
